sensor_id;sensor_type;location;lat;lon;timestamp;P1;durP1;ratioP1;P2;durP2;ratioP2
71965;SDS011;59836;52.132;5.442;2022-12-24T00:02:14;10.80;;;1.73;;
71965;SDS011;59836;52.132;5.442;2022-12-24T00:04:41;14.43;;;1.63;;
71965;SDS011;59836;52.132;5.442;2022-12-24T00:07:07;10.20;;;1.48;;
71965;SDS011;59836;52.132;5.442;2022-12-24T00:09:39;12.25;;;1.77;;
71965;SDS011;59836;52.132;5.442;2022-12-24T00:12:14;13.88;;;1.60;;
71965;SDS011;59836;52.132;5.442;2022-12-24T00:14:41;17.90;;;2.55;;
71965;SDS011;59836;52.132;5.442;2022-12-24T00:17:07;14.90;;;1.80;;
71965;SDS011;59836;52.132;5.442;2022-12-24T00:19:34;12.90;;;1.73;;
71965;SDS011;59836;52.132;5.442;2022-12-24T00:22:06;13.70;;;1.70;;
71965;SDS011;59836;52.132;5.442;2022-12-24T00:24:32;10.13;;;1.58;;
71965;SDS011;59836;52.132;5.442;2022-12-24T00:26:58;16.15;;;1.70;;
71965;SDS011;59836;52.132;5.442;2022-12-24T00:29:39;16.67;;;2.20;;
71965;SDS011;59836;52.132;5.442;2022-12-24T00:32:10;14.18;;;1.80;;
71965;SDS011;59836;52.132;5.442;2022-12-24T00:34:51;15.10;;;1.90;;
71965;SDS011;59836;52.132;5.442;2022-12-24T00:37:18;15.77;;;2.03;;
71965;SDS011;59836;52.132;5.442;2022-12-24T00:39:44;13.95;;;1.88;;
71965;SDS011;59836;52.132;5.442;2022-12-24T00:42:11;15.53;;;2.57;;
71965;SDS011;59836;52.132;5.442;2022-12-24T00:44:37;13.93;;;1.45;;
71965;SDS011;59836;52.132;5.442;2022-12-24T00:47:06;21.40;;;2.47;;
71965;SDS011;59836;52.132;5.442;2022-12-24T00:52:20;15.82;;;2.15;;
71965;SDS011;59836;52.132;5.442;2022-12-24T00:54:50;16.60;;;1.83;;
71965;SDS011;59836;52.132;5.442;2022-12-24T00:57:17;21.58;;;3.17;;
71965;SDS011;59836;52.132;5.442;2022-12-24T00:59:45;10.60;;;1.55;;
71965;SDS011;59836;52.132;5.442;2022-12-24T01:02:14;17.25;;;2.13;;
71965;SDS011;59836;52.132;5.442;2022-12-24T01:07:43;16.23;;;2.73;;
71965;SDS011;59836;52.132;5.442;2022-12-24T01:10:11;14.27;;;1.98;;
71965;SDS011;59836;52.132;5.442;2022-12-24T01:12:43;17.85;;;2.38;;
71965;SDS011;59836;52.132;5.442;2022-12-24T01:15:27;20.17;;;2.05;;
71965;SDS011;59836;52.132;5.442;2022-12-24T01:18:11;17.85;;;2.22;;
71965;SDS011;59836;52.132;5.442;2022-12-24T01:20:39;19.87;;;1.93;;
71965;SDS011;59836;52.132;5.442;2022-12-24T01:23:16;14.23;;;1.63;;
71965;SDS011;59836;52.132;5.442;2022-12-24T01:25:42;13.70;;;1.60;;
71965;SDS011;59836;52.132;5.442;2022-12-24T01:28:08;11.75;;;1.98;;
71965;SDS011;59836;52.132;5.442;2022-12-24T01:30:39;16.02;;;1.60;;
71965;SDS011;59836;52.132;5.442;2022-12-24T01:33:11;17.50;;;2.90;;
71965;SDS011;59836;52.132;5.442;2022-12-24T01:35:46;17.88;;;2.38;;
71965;SDS011;59836;52.132;5.442;2022-12-24T01:38:16;19.60;;;2.08;;
71965;SDS011;59836;52.132;5.442;2022-12-24T01:40:53;20.45;;;2.25;;
71965;SDS011;59836;52.132;5.442;2022-12-24T01:43:38;18.42;;;2.28;;
71965;SDS011;59836;52.132;5.442;2022-12-24T01:49:03;17.65;;;1.83;;
71965;SDS011;59836;52.132;5.442;2022-12-24T02:00:15;15.47;;;2.47;;
71965;SDS011;59836;52.132;5.442;2022-12-24T02:02:45;19.25;;;2.28;;
71965;SDS011;59836;52.132;5.442;2022-12-24T02:05:21;22.67;;;2.25;;
71965;SDS011;59836;52.132;5.442;2022-12-24T02:07:53;14.65;;;1.67;;
71965;SDS011;59836;52.132;5.442;2022-12-24T02:10:20;15.73;;;1.90;;
71965;SDS011;59836;52.132;5.442;2022-12-24T02:12:46;13.73;;;2.17;;
71965;SDS011;59836;52.132;5.442;2022-12-24T02:15:33;21.17;;;2.70;;
71965;SDS011;59836;52.132;5.442;2022-12-24T02:18:54;18.98;;;1.88;;
71965;SDS011;59836;52.132;5.442;2022-12-24T02:27:28;17.67;;;3.97;;
71965;SDS011;59836;52.132;5.442;2022-12-24T02:36:05;16.27;;;2.03;;
71965;SDS011;59836;52.132;5.442;2022-12-24T02:39:03;17.13;;;2.47;;
71965;SDS011;59836;52.132;5.442;2022-12-24T02:41:36;16.30;;;2.17;;
71965;SDS011;59836;52.132;5.442;2022-12-24T02:44:26;22.88;;;2.53;;
71965;SDS011;59836;52.132;5.442;2022-12-24T02:46:55;13.82;;;1.75;;
71965;SDS011;59836;52.132;5.442;2022-12-24T02:49:24;14.95;;;2.33;;
71965;SDS011;59836;52.132;5.442;2022-12-24T02:51:50;13.85;;;2.05;;
71965;SDS011;59836;52.132;5.442;2022-12-24T02:54:33;13.17;;;2.27;;
71965;SDS011;59836;52.132;5.442;2022-12-24T03:10:51;11.52;;;2.47;;
71965;SDS011;59836;52.132;5.442;2022-12-24T03:13:22;12.15;;;1.42;;
71965;SDS011;59836;52.132;5.442;2022-12-24T03:16:08;13.70;;;1.40;;
71965;SDS011;59836;52.132;5.442;2022-12-24T03:18:49;13.02;;;1.60;;
71965;SDS011;59836;52.132;5.442;2022-12-24T03:21:32;24.20;;;2.57;;
71965;SDS011;59836;52.132;5.442;2022-12-24T03:24:04;9.30;;;1.27;;
71965;SDS011;59836;52.132;5.442;2022-12-24T03:26:31;13.57;;;1.42;;
71965;SDS011;59836;52.132;5.442;2022-12-24T03:28:59;15.35;;;2.00;;
71965;SDS011;59836;52.132;5.442;2022-12-24T03:31:44;12.18;;;1.98;;
71965;SDS011;59836;52.132;5.442;2022-12-24T03:34:15;16.87;;;1.60;;
71965;SDS011;59836;52.132;5.442;2022-12-24T03:39:23;12.68;;;1.50;;
71965;SDS011;59836;52.132;5.442;2022-12-24T03:41:49;16.42;;;1.58;;
71965;SDS011;59836;52.132;5.442;2022-12-24T03:44:20;11.70;;;1.77;;
71965;SDS011;59836;52.132;5.442;2022-12-24T03:46:46;14.67;;;1.77;;
71965;SDS011;59836;52.132;5.442;2022-12-24T03:49:20;16.90;;;2.72;;
71965;SDS011;59836;52.132;5.442;2022-12-24T03:51:46;16.73;;;1.80;;
71965;SDS011;59836;52.132;5.442;2022-12-24T03:56:50;16.25;;;2.35;;
71965;SDS011;59836;52.132;5.442;2022-12-24T03:59:17;17.13;;;2.13;;
71965;SDS011;59836;52.132;5.442;2022-12-24T04:01:43;22.95;;;2.83;;
71965;SDS011;59836;52.132;5.442;2022-12-24T04:04:10;16.58;;;1.83;;
71965;SDS011;59836;52.132;5.442;2022-12-24T04:06:46;21.70;;;2.38;;
71965;SDS011;59836;52.132;5.442;2022-12-24T04:09:20;16.60;;;2.28;;
71965;SDS011;59836;52.132;5.442;2022-12-24T04:11:47;14.93;;;2.73;;
71965;SDS011;59836;52.132;5.442;2022-12-24T04:14:13;22.27;;;2.42;;
71965;SDS011;59836;52.132;5.442;2022-12-24T04:16:40;18.40;;;2.70;;
71965;SDS011;59836;52.132;5.442;2022-12-24T04:19:07;16.35;;;2.10;;
71965;SDS011;59836;52.132;5.442;2022-12-24T04:21:40;17.05;;;2.47;;
71965;SDS011;59836;52.132;5.442;2022-12-24T04:24:06;15.70;;;2.30;;
71965;SDS011;59836;52.132;5.442;2022-12-24T04:26:34;19.27;;;2.17;;
71965;SDS011;59836;52.132;5.442;2022-12-24T04:29:03;14.35;;;1.52;;
71965;SDS011;59836;52.132;5.442;2022-12-24T04:31:31;17.65;;;2.30;;
71965;SDS011;59836;52.132;5.442;2022-12-24T04:33:58;15.43;;;1.88;;
71965;SDS011;59836;52.132;5.442;2022-12-24T04:36:24;14.73;;;2.33;;
71965;SDS011;59836;52.132;5.442;2022-12-24T04:38:51;15.70;;;2.35;;
71965;SDS011;59836;52.132;5.442;2022-12-24T04:41:22;15.60;;;2.10;;
71965;SDS011;59836;52.132;5.442;2022-12-24T04:43:52;19.30;;;2.35;;
71965;SDS011;59836;52.132;5.442;2022-12-24T04:46:21;13.52;;;2.10;;
71965;SDS011;59836;52.132;5.442;2022-12-24T04:48:50;17.77;;;2.00;;
71965;SDS011;59836;52.132;5.442;2022-12-24T04:51:18;19.70;;;2.05;;
71965;SDS011;59836;52.132;5.442;2022-12-24T04:53:45;19.33;;;2.63;;
71965;SDS011;59836;52.132;5.442;2022-12-24T04:56:14;19.90;;;2.20;;
71965;SDS011;59836;52.132;5.442;2022-12-24T04:58:42;12.13;;;2.38;;
71965;SDS011;59836;52.132;5.442;2022-12-24T05:01:14;14.67;;;1.90;;
71965;SDS011;59836;52.132;5.442;2022-12-24T05:03:43;29.65;;;12.63;;
71965;SDS011;59836;52.132;5.442;2022-12-24T05:06:21;35.35;;;12.25;;
71965;SDS011;59836;52.132;5.442;2022-12-24T05:08:54;29.73;;;7.78;;
71965;SDS011;59836;52.132;5.442;2022-12-24T05:11:22;20.95;;;5.50;;
71965;SDS011;59836;52.132;5.442;2022-12-24T05:13:50;19.57;;;3.60;;
71965;SDS011;59836;52.132;5.442;2022-12-24T05:16:17;13.23;;;2.60;;
71965;SDS011;59836;52.132;5.442;2022-12-24T05:18:45;16.42;;;2.33;;
71965;SDS011;59836;52.132;5.442;2022-12-24T05:21:13;12.88;;;2.42;;
71965;SDS011;59836;52.132;5.442;2022-12-24T05:23:42;10.80;;;1.65;;
71965;SDS011;59836;52.132;5.442;2022-12-24T05:26:43;14.43;;;2.13;;
71965;SDS011;59836;52.132;5.442;2022-12-24T05:29:10;15.07;;;1.90;;
71965;SDS011;59836;52.132;5.442;2022-12-24T05:31:43;19.67;;;2.53;;
71965;SDS011;59836;52.132;5.442;2022-12-24T05:34:11;15.40;;;2.25;;
71965;SDS011;59836;52.132;5.442;2022-12-24T05:36:55;16.85;;;1.85;;
71965;SDS011;59836;52.132;5.442;2022-12-24T05:39:21;13.40;;;1.90;;
71965;SDS011;59836;52.132;5.442;2022-12-24T05:41:49;16.85;;;1.83;;
71965;SDS011;59836;52.132;5.442;2022-12-24T05:44:16;11.45;;;1.63;;
71965;SDS011;59836;52.132;5.442;2022-12-24T05:46:49;17.45;;;2.28;;
71965;SDS011;59836;52.132;5.442;2022-12-24T05:49:15;14.43;;;2.10;;
71965;SDS011;59836;52.132;5.442;2022-12-24T05:51:42;15.83;;;1.90;;
71965;SDS011;59836;52.132;5.442;2022-12-24T05:54:08;15.85;;;2.65;;
71965;SDS011;59836;52.132;5.442;2022-12-24T05:56:36;12.55;;;1.98;;
71965;SDS011;59836;52.132;5.442;2022-12-24T05:59:03;23.35;;;3.20;;
71965;SDS011;59836;52.132;5.442;2022-12-24T06:01:29;15.23;;;2.55;;
71965;SDS011;59836;52.132;5.442;2022-12-24T06:03:56;15.10;;;2.50;;
71965;SDS011;59836;52.132;5.442;2022-12-24T06:06:23;10.85;;;2.70;;
71965;SDS011;59836;52.132;5.442;2022-12-24T06:08:53;12.90;;;2.40;;
71965;SDS011;59836;52.132;5.442;2022-12-24T06:11:25;17.63;;;2.90;;
71965;SDS011;59836;52.132;5.442;2022-12-24T06:16:25;15.80;;;2.50;;
71965;SDS011;59836;52.132;5.442;2022-12-24T06:18:52;22.23;;;2.22;;
71965;SDS011;59836;52.132;5.442;2022-12-24T06:21:18;16.27;;;1.65;;
71965;SDS011;59836;52.132;5.442;2022-12-24T06:23:46;15.75;;;2.65;;
71965;SDS011;59836;52.132;5.442;2022-12-24T06:26:14;21.35;;;2.78;;
71965;SDS011;59836;52.132;5.442;2022-12-24T06:28:43;20.47;;;3.03;;
71965;SDS011;59836;52.132;5.442;2022-12-24T06:31:18;19.35;;;2.35;;
71965;SDS011;59836;52.132;5.442;2022-12-24T06:33:48;20.00;;;2.08;;
71965;SDS011;59836;52.132;5.442;2022-12-24T06:36:27;20.52;;;2.47;;
71965;SDS011;59836;52.132;5.442;2022-12-24T06:38:54;17.20;;;2.25;;
71965;SDS011;59836;52.132;5.442;2022-12-24T06:41:30;20.17;;;3.07;;
71965;SDS011;59836;52.132;5.442;2022-12-24T06:46:34;18.95;;;2.60;;
71965;SDS011;59836;52.132;5.442;2022-12-24T06:49:04;22.85;;;2.05;;
71965;SDS011;59836;52.132;5.442;2022-12-24T06:51:30;18.33;;;2.83;;
71965;SDS011;59836;52.132;5.442;2022-12-24T06:53:57;24.23;;;2.83;;
71965;SDS011;59836;52.132;5.442;2022-12-24T06:56:23;19.92;;;3.25;;
71965;SDS011;59836;52.132;5.442;2022-12-24T06:58:50;22.20;;;2.88;;
71965;SDS011;59836;52.132;5.442;2022-12-24T07:01:29;19.63;;;2.75;;
71965;SDS011;59836;52.132;5.442;2022-12-24T07:03:56;27.30;;;2.88;;
71965;SDS011;59836;52.132;5.442;2022-12-24T07:06:29;22.23;;;3.60;;
71965;SDS011;59836;52.132;5.442;2022-12-24T07:08:56;21.30;;;3.53;;
71965;SDS011;59836;52.132;5.442;2022-12-24T07:13:58;18.98;;;2.88;;
71965;SDS011;59836;52.132;5.442;2022-12-24T07:16:33;27.63;;;3.30;;
71965;SDS011;59836;52.132;5.442;2022-12-24T07:18:59;23.77;;;2.73;;
71965;SDS011;59836;52.132;5.442;2022-12-24T07:21:26;20.10;;;2.67;;
71965;SDS011;59836;52.132;5.442;2022-12-24T07:24:02;23.23;;;2.75;;
71965;SDS011;59836;52.132;5.442;2022-12-24T07:26:29;19.02;;;2.53;;
71965;SDS011;59836;52.132;5.442;2022-12-24T07:29:00;20.60;;;2.72;;
71965;SDS011;59836;52.132;5.442;2022-12-24T07:31:26;19.63;;;3.33;;
71965;SDS011;59836;52.132;5.442;2022-12-24T07:33:53;26.33;;;2.33;;
71965;SDS011;59836;52.132;5.442;2022-12-24T07:36:20;20.95;;;2.30;;
71965;SDS011;59836;52.132;5.442;2022-12-24T07:38:55;20.88;;;1.88;;
71965;SDS011;59836;52.132;5.442;2022-12-24T07:41:22;18.05;;;2.60;;
71965;SDS011;59836;52.132;5.442;2022-12-24T07:43:49;22.97;;;2.47;;
71965;SDS011;59836;52.132;5.442;2022-12-24T07:49:09;17.13;;;1.75;;
71965;SDS011;59836;52.132;5.442;2022-12-24T07:54:22;26.48;;;2.97;;
71965;SDS011;59836;52.132;5.442;2022-12-24T07:57:02;22.13;;;2.87;;
71965;SDS011;59836;52.132;5.442;2022-12-24T07:59:37;21.42;;;2.83;;
71965;SDS011;59836;52.132;5.442;2022-12-24T08:02:04;25.02;;;3.03;;
71965;SDS011;59836;52.132;5.442;2022-12-24T08:07:22;28.13;;;3.38;;
71965;SDS011;59836;52.132;5.442;2022-12-24T08:09:49;22.83;;;3.37;;
71965;SDS011;59836;52.132;5.442;2022-12-24T08:12:15;25.67;;;3.03;;
71965;SDS011;59836;52.132;5.442;2022-12-24T08:14:47;20.30;;;2.20;;
71965;SDS011;59836;52.132;5.442;2022-12-24T08:17:14;20.42;;;2.30;;
71965;SDS011;59836;52.132;5.442;2022-12-24T08:19:40;20.50;;;2.70;;
71965;SDS011;59836;52.132;5.442;2022-12-24T08:22:12;21.63;;;2.57;;
71965;SDS011;59836;52.132;5.442;2022-12-24T08:24:38;31.63;;;3.65;;
71965;SDS011;59836;52.132;5.442;2022-12-24T08:27:05;21.20;;;2.33;;
71965;SDS011;59836;52.132;5.442;2022-12-24T08:29:48;18.65;;;2.30;;
71965;SDS011;59836;52.132;5.442;2022-12-24T08:32:21;21.17;;;2.58;;
71965;SDS011;59836;52.132;5.442;2022-12-24T08:34:48;30.50;;;3.37;;
71965;SDS011;59836;52.132;5.442;2022-12-24T08:37:18;24.00;;;3.13;;
71965;SDS011;59836;52.132;5.442;2022-12-24T08:39:47;25.23;;;2.78;;
71965;SDS011;59836;52.132;5.442;2022-12-24T08:42:29;23.88;;;3.80;;
71965;SDS011;59836;52.132;5.442;2022-12-24T08:44:55;17.70;;;2.97;;
71965;SDS011;59836;52.132;5.442;2022-12-24T08:47:24;16.30;;;2.90;;
71965;SDS011;59836;52.132;5.442;2022-12-24T08:52:46;25.02;;;3.30;;
71965;SDS011;59836;52.132;5.442;2022-12-24T08:55:19;20.85;;;3.28;;
71965;SDS011;59836;52.132;5.442;2022-12-24T08:57:46;22.60;;;3.55;;
71965;SDS011;59836;52.132;5.442;2022-12-24T09:00:14;24.60;;;3.07;;
71965;SDS011;59836;52.132;5.442;2022-12-24T09:02:41;24.77;;;3.85;;
71965;SDS011;59836;52.132;5.442;2022-12-24T09:05:08;23.30;;;2.45;;
71965;SDS011;59836;52.132;5.442;2022-12-24T09:07:34;18.67;;;2.80;;
71965;SDS011;59836;52.132;5.442;2022-12-24T09:10:01;22.45;;;3.50;;
71965;SDS011;59836;52.132;5.442;2022-12-24T09:12:30;17.53;;;3.17;;
71965;SDS011;59836;52.132;5.442;2022-12-24T09:14:57;20.67;;;2.67;;
71965;SDS011;59836;52.132;5.442;2022-12-24T09:20:14;24.35;;;3.03;;
71965;SDS011;59836;52.132;5.442;2022-12-24T09:22:41;17.55;;;2.55;;
71965;SDS011;59836;52.132;5.442;2022-12-24T09:25:07;22.87;;;3.07;;
71965;SDS011;59836;52.132;5.442;2022-12-24T09:27:36;20.42;;;3.10;;
71965;SDS011;59836;52.132;5.442;2022-12-24T09:30:03;18.55;;;3.45;;
71965;SDS011;59836;52.132;5.442;2022-12-24T09:32:50;22.27;;;2.88;;
71965;SDS011;59836;52.132;5.442;2022-12-24T09:35:16;21.48;;;3.45;;
71965;SDS011;59836;52.132;5.442;2022-12-24T09:37:43;20.50;;;2.77;;
71965;SDS011;59836;52.132;5.442;2022-12-24T09:40:15;20.42;;;3.72;;
71965;SDS011;59836;52.132;5.442;2022-12-24T09:42:52;19.10;;;2.30;;
71965;SDS011;59836;52.132;5.442;2022-12-24T09:47:53;19.65;;;2.95;;
71965;SDS011;59836;52.132;5.442;2022-12-24T09:55:51;14.68;;;2.05;;
71965;SDS011;59836;52.132;5.442;2022-12-24T09:58:22;16.80;;;2.22;;
71965;SDS011;59836;52.132;5.442;2022-12-24T10:01:02;23.73;;;2.72;;
71965;SDS011;59836;52.132;5.442;2022-12-24T10:03:29;19.60;;;3.00;;
71965;SDS011;59836;52.132;5.442;2022-12-24T10:11:53;18.05;;;2.70;;
71965;SDS011;59836;52.132;5.442;2022-12-24T10:20:10;18.63;;;2.85;;
71965;SDS011;59836;52.132;5.442;2022-12-24T10:26:25;16.30;;;2.72;;
71965;SDS011;59836;52.132;5.442;2022-12-24T10:28:56;16.73;;;2.25;;
71965;SDS011;59836;52.132;5.442;2022-12-24T10:31:26;23.33;;;3.23;;
71965;SDS011;59836;52.132;5.442;2022-12-24T10:36:49;15.90;;;2.05;;
71965;SDS011;59836;52.132;5.442;2022-12-24T10:39:17;17.65;;;2.58;;
71965;SDS011;59836;52.132;5.442;2022-12-24T10:41:50;19.67;;;2.55;;
71965;SDS011;59836;52.132;5.442;2022-12-24T10:44:20;25.57;;;2.53;;
71965;SDS011;59836;52.132;5.442;2022-12-24T10:46:49;18.52;;;2.45;;
71965;SDS011;59836;52.132;5.442;2022-12-24T10:49:17;16.77;;;2.50;;
71965;SDS011;59836;52.132;5.442;2022-12-24T10:52:09;17.83;;;2.47;;
71965;SDS011;59836;52.132;5.442;2022-12-24T10:55:02;13.98;;;2.72;;
71965;SDS011;59836;52.132;5.442;2022-12-24T11:00:34;29.50;;;3.65;;
71965;SDS011;59836;52.132;5.442;2022-12-24T11:03:19;13.82;;;2.13;;
71965;SDS011;59836;52.132;5.442;2022-12-24T11:10:58;17.80;;;2.03;;
71965;SDS011;59836;52.132;5.442;2022-12-24T11:13:27;13.90;;;2.35;;
71965;SDS011;59836;52.132;5.442;2022-12-24T11:18:44;10.65;;;2.38;;
71965;SDS011;59836;52.132;5.442;2022-12-24T11:21:24;15.60;;;2.47;;
71965;SDS011;59836;52.132;5.442;2022-12-24T11:23:57;12.47;;;2.00;;
71965;SDS011;59836;52.132;5.442;2022-12-24T11:26:26;12.93;;;2.42;;
71965;SDS011;59836;52.132;5.442;2022-12-24T11:29:02;21.30;;;2.45;;
71965;SDS011;59836;52.132;5.442;2022-12-24T11:31:29;17.15;;;2.58;;
71965;SDS011;59836;52.132;5.442;2022-12-24T11:33:58;12.68;;;2.20;;
71965;SDS011;59836;52.132;5.442;2022-12-24T11:36:24;16.73;;;2.87;;
71965;SDS011;59836;52.132;5.442;2022-12-24T11:38:53;14.75;;;2.95;;
71965;SDS011;59836;52.132;5.442;2022-12-24T11:41:23;17.63;;;2.17;;
71965;SDS011;59836;52.132;5.442;2022-12-24T11:43:51;14.73;;;2.20;;
71965;SDS011;59836;52.132;5.442;2022-12-24T11:49:05;17.40;;;2.03;;
71965;SDS011;59836;52.132;5.442;2022-12-24T11:51:57;11.35;;;2.13;;
71965;SDS011;59836;52.132;5.442;2022-12-24T11:54:40;13.18;;;1.85;;
71965;SDS011;59836;52.132;5.442;2022-12-24T11:57:31;11.80;;;1.27;;
71965;SDS011;59836;52.132;5.442;2022-12-24T12:00:09;12.27;;;1.52;;
71965;SDS011;59836;52.132;5.442;2022-12-24T12:02:37;15.40;;;2.03;;
71965;SDS011;59836;52.132;5.442;2022-12-24T12:05:18;12.13;;;1.40;;
71965;SDS011;59836;52.132;5.442;2022-12-24T12:13:46;12.60;;;2.05;;
71965;SDS011;59836;52.132;5.442;2022-12-24T12:16:16;8.30;;;1.40;;
71965;SDS011;59836;52.132;5.442;2022-12-24T12:18:56;9.43;;;1.60;;
71965;SDS011;59836;52.132;5.442;2022-12-24T12:21:34;10.68;;;1.50;;
71965;SDS011;59836;52.132;5.442;2022-12-24T12:24:10;9.60;;;1.63;;
71965;SDS011;59836;52.132;5.442;2022-12-24T12:27:03;9.82;;;1.65;;
71965;SDS011;59836;52.132;5.442;2022-12-24T12:32:34;10.65;;;1.55;;
71965;SDS011;59836;52.132;5.442;2022-12-24T12:35:13;14.27;;;1.60;;
71965;SDS011;59836;52.132;5.442;2022-12-24T12:38:09;16.90;;;1.98;;
71965;SDS011;59836;52.132;5.442;2022-12-24T12:40:54;16.70;;;1.60;;
71965;SDS011;59836;52.132;5.442;2022-12-24T12:57:21;10.23;;;2.07;;
71965;SDS011;59836;52.132;5.442;2022-12-24T12:59:56;9.50;;;2.17;;
71965;SDS011;59836;52.132;5.442;2022-12-24T13:05:37;14.82;;;2.47;;
71965;SDS011;59836;52.132;5.442;2022-12-24T13:14:06;11.73;;;2.13;;
71965;SDS011;59836;52.132;5.442;2022-12-24T13:25:48;10.30;;;2.17;;
71965;SDS011;59836;52.132;5.442;2022-12-24T13:30:52;13.63;;;1.75;;
71965;SDS011;59836;52.132;5.442;2022-12-24T13:33:51;9.82;;;1.67;;
71965;SDS011;59836;52.132;5.442;2022-12-24T13:36:22;10.18;;;1.98;;
71965;SDS011;59836;52.132;5.442;2022-12-24T13:38:52;14.03;;;1.63;;
71965;SDS011;59836;52.132;5.442;2022-12-24T13:41:48;10.68;;;2.10;;
71965;SDS011;59836;52.132;5.442;2022-12-24T13:49:58;12.10;;;1.75;;
71965;SDS011;59836;52.132;5.442;2022-12-24T13:52:47;9.73;;;1.33;;
71965;SDS011;59836;52.132;5.442;2022-12-24T13:55:28;15.43;;;1.80;;
71965;SDS011;59836;52.132;5.442;2022-12-24T13:58:01;11.60;;;1.50;;
71965;SDS011;59836;52.132;5.442;2022-12-24T14:03:25;7.05;;;1.58;;
71965;SDS011;59836;52.132;5.442;2022-12-24T14:05:57;12.53;;;1.57;;
71965;SDS011;59836;52.132;5.442;2022-12-24T14:08:39;11.25;;;2.33;;
71965;SDS011;59836;52.132;5.442;2022-12-24T14:11:10;8.75;;;2.00;;
71965;SDS011;59836;52.132;5.442;2022-12-24T14:16:08;10.80;;;2.10;;
71965;SDS011;59836;52.132;5.442;2022-12-24T14:18:45;11.10;;;1.87;;
71965;SDS011;59836;52.132;5.442;2022-12-24T14:21:17;11.18;;;1.90;;
71965;SDS011;59836;52.132;5.442;2022-12-24T14:23:56;12.90;;;1.70;;
71965;SDS011;59836;52.132;5.442;2022-12-24T14:26:43;15.20;;;1.85;;
71965;SDS011;59836;52.132;5.442;2022-12-24T14:31:58;13.67;;;1.80;;
71965;SDS011;59836;52.132;5.442;2022-12-24T14:34:38;9.68;;;1.42;;
71965;SDS011;59836;52.132;5.442;2022-12-24T14:37:05;14.70;;;2.78;;
71965;SDS011;59836;52.132;5.442;2022-12-24T14:39:33;11.60;;;2.22;;
71965;SDS011;59836;52.132;5.442;2022-12-24T14:56:19;11.23;;;2.70;;
71965;SDS011;59836;52.132;5.442;2022-12-24T14:58:47;7.93;;;2.27;;
71965;SDS011;59836;52.132;5.442;2022-12-24T15:01:28;12.43;;;2.47;;
71965;SDS011;59836;52.132;5.442;2022-12-24T15:06:36;11.18;;;1.80;;
71965;SDS011;59836;52.132;5.442;2022-12-24T15:09:05;11.30;;;2.47;;
71965;SDS011;59836;52.132;5.442;2022-12-24T15:11:48;16.17;;;2.50;;
71965;SDS011;59836;52.132;5.442;2022-12-24T15:14:20;13.60;;;2.67;;
71965;SDS011;59836;52.132;5.442;2022-12-24T15:16:53;15.98;;;2.72;;
71965;SDS011;59836;52.132;5.442;2022-12-24T15:19:26;10.52;;;2.22;;
71965;SDS011;59836;52.132;5.442;2022-12-24T15:21:57;16.15;;;2.85;;
71965;SDS011;59836;52.132;5.442;2022-12-24T15:27:01;17.42;;;3.20;;
71965;SDS011;59836;52.132;5.442;2022-12-24T15:29:38;17.10;;;2.85;;
71965;SDS011;59836;52.132;5.442;2022-12-24T15:32:15;17.10;;;2.75;;
71965;SDS011;59836;52.132;5.442;2022-12-24T15:34:44;12.55;;;2.30;;
71965;SDS011;59836;52.132;5.442;2022-12-24T15:37:17;17.13;;;2.20;;
71965;SDS011;59836;52.132;5.442;2022-12-24T15:39:56;14.00;;;2.10;;
71965;SDS011;59836;52.132;5.442;2022-12-24T15:42:27;13.63;;;1.65;;
71965;SDS011;59836;52.132;5.442;2022-12-24T15:44:55;9.75;;;1.48;;
71965;SDS011;59836;52.132;5.442;2022-12-24T15:47:30;12.70;;;1.75;;
71965;SDS011;59836;52.132;5.442;2022-12-24T15:50:04;9.27;;;1.40;;
71965;SDS011;59836;52.132;5.442;2022-12-24T15:52:43;11.68;;;1.98;;
71965;SDS011;59836;52.132;5.442;2022-12-24T15:55:24;14.80;;;2.40;;
71965;SDS011;59836;52.132;5.442;2022-12-24T15:57:51;12.73;;;2.20;;
71965;SDS011;59836;52.132;5.442;2022-12-24T16:00:21;10.23;;;1.92;;
71965;SDS011;59836;52.132;5.442;2022-12-24T16:02:50;15.27;;;2.10;;
71965;SDS011;59836;52.132;5.442;2022-12-24T16:10:33;15.23;;;2.00;;
71965;SDS011;59836;52.132;5.442;2022-12-24T16:15:50;12.10;;;1.60;;
71965;SDS011;59836;52.132;5.442;2022-12-24T16:18:21;15.00;;;2.15;;
71965;SDS011;59836;52.132;5.442;2022-12-24T16:20:51;10.95;;;2.15;;
71965;SDS011;59836;52.132;5.442;2022-12-24T16:23:36;11.07;;;3.10;;
71965;SDS011;59836;52.132;5.442;2022-12-24T16:26:20;11.07;;;2.38;;
71965;SDS011;59836;52.132;5.442;2022-12-24T16:35:29;11.23;;;2.55;;
71965;SDS011;59836;52.132;5.442;2022-12-24T16:38:14;12.75;;;2.88;;
71965;SDS011;59836;52.132;5.442;2022-12-24T16:40:41;12.63;;;3.40;;
71965;SDS011;59836;52.132;5.442;2022-12-24T16:43:08;11.77;;;3.67;;
71965;SDS011;59836;52.132;5.442;2022-12-24T16:45:58;15.73;;;4.00;;
71965;SDS011;59836;52.132;5.442;2022-12-24T16:48:32;16.88;;;4.70;;
71965;SDS011;59836;52.132;5.442;2022-12-24T16:54:02;12.40;;;3.70;;
71965;SDS011;59836;52.132;5.442;2022-12-24T16:56:32;13.97;;;3.40;;
71965;SDS011;59836;52.132;5.442;2022-12-24T16:59:33;15.95;;;3.75;;
71965;SDS011;59836;52.132;5.442;2022-12-24T17:07:39;13.60;;;3.05;;
71965;SDS011;59836;52.132;5.442;2022-12-24T17:13:24;14.02;;;2.90;;
71965;SDS011;59836;52.132;5.442;2022-12-24T17:15:52;17.25;;;3.08;;
71965;SDS011;59836;52.132;5.442;2022-12-24T17:18:26;10.02;;;2.60;;
71965;SDS011;59836;52.132;5.442;2022-12-24T17:20:58;12.43;;;2.65;;
71965;SDS011;59836;52.132;5.442;2022-12-24T17:26:28;17.00;;;3.33;;
71965;SDS011;59836;52.132;5.442;2022-12-24T17:31:24;10.05;;;2.70;;
71965;SDS011;59836;52.132;5.442;2022-12-24T17:33:51;14.80;;;3.47;;
71965;SDS011;59836;52.132;5.442;2022-12-24T17:39:11;11.20;;;3.45;;
71965;SDS011;59836;52.132;5.442;2022-12-24T17:44:17;10.95;;;3.72;;
71965;SDS011;59836;52.132;5.442;2022-12-24T17:49:58;20.97;;;7.23;;
71965;SDS011;59836;52.132;5.442;2022-12-24T17:52:25;22.42;;;8.65;;
71965;SDS011;59836;52.132;5.442;2022-12-24T17:54:51;17.67;;;7.47;;
71965;SDS011;59836;52.132;5.442;2022-12-24T17:57:24;19.30;;;6.55;;
71965;SDS011;59836;52.132;5.442;2022-12-24T17:59:50;17.02;;;5.78;;
71965;SDS011;59836;52.132;5.442;2022-12-24T18:02:28;15.03;;;6.50;;
71965;SDS011;59836;52.132;5.442;2022-12-24T18:05:02;15.98;;;5.50;;
71965;SDS011;59836;52.132;5.442;2022-12-24T18:07:36;13.50;;;5.85;;
71965;SDS011;59836;52.132;5.442;2022-12-24T18:10:03;18.55;;;5.43;;
71965;SDS011;59836;52.132;5.442;2022-12-24T18:12:29;15.20;;;6.30;;
71965;SDS011;59836;52.132;5.442;2022-12-24T18:14:56;19.43;;;5.73;;
71965;SDS011;59836;52.132;5.442;2022-12-24T18:17:22;18.40;;;5.13;;
71965;SDS011;59836;52.132;5.442;2022-12-24T18:19:49;14.13;;;5.35;;
71965;SDS011;59836;52.132;5.442;2022-12-24T18:22:15;14.30;;;5.30;;
71965;SDS011;59836;52.132;5.442;2022-12-24T18:24:41;12.05;;;4.88;;
71965;SDS011;59836;52.132;5.442;2022-12-24T18:27:08;17.57;;;5.53;;
71965;SDS011;59836;52.132;5.442;2022-12-24T18:29:34;15.18;;;5.05;;
71965;SDS011;59836;52.132;5.442;2022-12-24T18:32:04;17.70;;;5.43;;
71965;SDS011;59836;52.132;5.442;2022-12-24T18:34:31;16.17;;;4.93;;
71965;SDS011;59836;52.132;5.442;2022-12-24T18:36:57;18.02;;;4.97;;
71965;SDS011;59836;52.132;5.442;2022-12-24T18:39:24;15.30;;;5.43;;
71965;SDS011;59836;52.132;5.442;2022-12-24T18:41:50;15.57;;;4.68;;
71965;SDS011;59836;52.132;5.442;2022-12-24T18:44:17;20.73;;;4.85;;
71965;SDS011;59836;52.132;5.442;2022-12-24T18:46:50;17.83;;;4.63;;
71965;SDS011;59836;52.132;5.442;2022-12-24T18:49:17;16.95;;;5.60;;
71965;SDS011;59836;52.132;5.442;2022-12-24T18:51:45;17.40;;;5.17;;